西安 の空港の天気 - METARとTAF

西安咸陽国際空港 ( ZLXY / XIY ) - 中国 陝西省西安市
飛行場実況気象(Metar)
観測時間05/29 23:00 CST (05/29 15:00 UTC)
風向・風速北 3m/s
視程10km以上
天気現象
なし
気温23℃
湿度53%
気圧1006hPa
METARZLXY 291500Z 01003MPS CAVOK 23/13 Q1006 NOSIG
過去の天気等 Google飛行場航空写真 Wunderground天気予報

過去48時間のMETAR

飛行場予報(TAF)
発表時間: 5/29 17:23 CST (5/29 09:23 UTC)
予報対象時間: 29日20時 CST ~ 30日20時 CST
風向・風速東北東 3m/s
視程5000m
天気現象煙霧
なし
29日20時 CST ~ 29日23時 CST に一時的に
天気現象しゅう雨
少しの積乱雲 雲底高度 1220m
全天の4割程度の雲 雲底高度 1830m
TAF ZLXY 290923Z 2912/3012 06003MPS 5000 HZ NSC TX33/3007Z TN18/2922Z
TEMPO 2912/2915 SHRA FEW040CB SCT060